Tiempo atmosférico en la estación meteorológica de Alcazar De San Juan, Ciudad Real (664 m.)

Fecha
DESCASC
Temp. máxima en grados centígrados (hora)
DESCASC
Temp. mínima en grados centígrados (hora)
DESCASC
Temp. media en grados centígrados
DESCASC
Racha de viento máxima en m/sg (hora)
DESCASC
Velocidad máxima media en intervalos de 10 minutos(hora)
DESCASC
Precipitaciones diarias en mm
DESCASC
Precipitaciones de 00:00 a 06:00 en mm
DESCASC
Precipitaciones de 06:00 a 12:00 en mm
DESCASC
Precipitaciones de 12:00 a 18:00 en mm
DESCASC
Precipitaciones de 18:00 a 24:00 en mm
DESCASC
23-11-2017 19.3 (15:10) 6.3 (03:30) 12.8 6.39 (15:00) 2.78 (15:00) 0 0 0 0 0
22-11-2017 17.6 (15:50) 0.7 (08:40) 9.2 4.72 (16:20) 2.5 (16:00) 0 0 0 0 0
21-11-2017 16.9 (15:30) 1 (07:40) 8.9 2.5 (11:40) 1.11 (14:20) 0 0 0 0 0
20-11-2017 16.8 (15:40) 0.1 (07:50) 8.4 3.06 (14:00) 1.39 (14:00) 0 0 0 0 0
19-11-2017 16.5 (15:30) 2 (00:00) 9.3 5 (02:50) 1.39 (02:40) 0 0 0 0 0
18-11-2017 16.8 (15:30) 1.2 (00:00) 9 2.78 (16:10) 1.11 (11:40) 0 0 0 0 0
17-11-2017 17.3 (16:10) 1.3 (00:00) 9.3 2.78 (15:10) 1.39 (15:10) 0 0 0 0 0
16-11-2017 17 (15:50) 0 (00:00) 8.5 3.61 (15:00) 1.39 (13:20) 0 0 0 0 0
15-11-2017 14.8 (15:40) 0.4 (00:00) 7.6 2.78 (03:00) 1.11 (16:00) 0 0 0 0 0
14-11-2017 13.4 (15:40) 2 (00:00) 7.7 6.94 (11:20) 3.61 (11:00) 0 0 0 0 0
13-11-2017 14.5 (13:50) 4.3 (00:00) 9.4 12.22 (14:10) 5 (13:20) 0 0 0 0 0
12-11-2017 17.8 (15:50) 2.7 (00:00) 10.2 4.72 (16:50) 1.94 (16:30) 0 0 0 0 0
11-11-2017 17.4 (15:50) 3.8 (00:00) 10.6 6.11 (14:20) 3.06 (14:00) 0 0 0 0 0
10-11-2017 16.1 (16:40) 1.6 (00:00) 8.9 10.28 (14:50) 5.28 (14:50) 0 0 0 0 0
09-11-2017 12 (15:10) 1 (00:00) 6.5 9.72 (11:10) 4.44 (11:40) 0 0 0 0 0
08-11-2017 14.5 (15:10) 2.6 (00:00) 8.5 8.89 (22:50) 3.89 (22:50) 0 0 0 0 0
07-11-2017 15.6 (15:40) 2.2 (00:00) 8.9 4.72 (16:10) 1.67 (14:10) 0 0 0 0 0
06-11-2017 14.3 (15:30) 3.7 (00:00) 9 8.61 (13:00) 3.89 (12:50) 0 0 0 0 0
05-11-2017 16.1 (14:30) 7.3 (00:00) 11.7 9.17 (15:20) 3.89 (15:20) 0 0 0 0 0
04-11-2017 16.1 (13:20) 10.3 (00:00) 13.2 7.78 (10:00) 3.61 (10:30) 5.6 0 0 5.6 0
03-11-2017 19.2 (13:00) 11.6 (00:00) 15.4 5.56 (13:30) 2.5 (22:40) 0 0 0 0 0
02-11-2017 21.3 (14:50) 11.3 (07:30) 16.3 4.72 (08:00) 1.94 (15:00) 0 0 0 0 0
01-11-2017 21.6 (15:20) 9.8 (00:00) 15.7 5.83 (02:50) 2.5 (16:20) 0 0 0 0 0
31-10-2017 21.3 (15:20) 9.3 (00:00) 15.3 6.67 (23:50) 2.5 (02:40) 0 0 0 0 0
30-10-2017 20.2 (15:30) 6.3 (00:00) 13.3 5.28 (13:30) 2.22 (13:20) 0 0 0 0 0
29-10-2017 20.9 (15:30) 7.2 (00:00) 14 3.33 (16:30) 1.39 (12:50) 0 0 0 0 0
28-10-2017 22.2 (16:30) 9.2 (00:00) 15.7 5.83 (12:00) 2.5 (16:20) 0 0 0 0 0
27-10-2017 28.1 (16:20) 9.8 (00:00) 19 7.22 (15:50) 3.33 (14:50) 0 0 0 0 0
26-10-2017 27 (16:10) 12 (00:00) 19.5 4.17 (13:50) 1.67 (15:40) 0 0 0 0 0
25-10-2017 27.5 (16:30) 8.5 (00:00) 18 3.89 (10:20) 1.39 (10:20) 0 0 0 0 0

Gráficas

Temp. máximas Temp. mínimas Temp. medias Precipitaciones Rachas de viento máximas Velocidades máximas media en intervalos de 10 minutos

Datos horarios

Fecha y hora oficial Temperatura (ºC) Velocidad del viento (km/h) Dirección del viento Racha (km/h) Dirección de racha Precipitación (mm) Presión (hPa) Tendencia (hPa) Humedad (%)
2017-11-23 23:00:00 10.3 2 Sur 6 Sur 0 -- -- 47
2017-11-23 22:00:00 10.8 0 Calma 6 Sur 0 -- -- 45
2017-11-23 21:00:00 11.5 3 Sur 6 Sur 0 -- -- 44
2017-11-23 20:00:00 12 0 Calma 3 Sudeste 0 -- -- 45
2017-11-23 19:00:00 13.3 0 Calma 2 Sur 0 -- -- 43
2017-11-23 18:00:00 15.6 0 Calma 4 Sudoeste 0 -- -- 36
2017-11-23 17:00:00 17.7 2 Sudoeste 19 Oeste 0 -- -- 30
2017-11-23 16:00:00 19.1 8 Sudoeste 23 Oeste 0 -- -- 27
2017-11-23 15:00:00 19.1 10 Sudoeste 23 Oeste 0 -- -- 27
2017-11-23 14:00:00 18.5 8 Sudoeste 21 Sudoeste 0 -- -- 28
2017-11-23 13:00:00 16.4 6 Sudoeste 17 Sur 0 -- -- 35
2017-11-23 12:00:00 14.1 4 Sur 11 Sudoeste 0 -- -- 44
2017-11-23 11:00:00 12.4 4 Sur 9 Sudeste 0 -- -- 44
2017-11-23 10:00:00 10.3 0 Calma 9 Sur 0 -- -- 46
2017-11-23 09:00:00 8.5 5 Sur 9 Sur 0 -- -- 49
2017-11-23 08:00:00 8.3 5 Sur 12 Sur 0 -- -- 48
2017-11-23 07:00:00 8.3 4 Sur 8 Sur 0 -- -- 47
2017-11-23 06:00:00 7.5 0 Calma 6 Sur 0 -- -- 48
2017-11-23 05:00:00 6.9 4 Sur 10 Sur 0 -- -- 49
2017-11-23 04:00:00 6.4 2 Sudeste 7 Sur 0 -- -- 53
2017-11-23 03:00:00 6.6 0 Calma 6 Sur 0 -- -- 55
2017-11-23 02:00:00 6.5 0 Calma 9 Sur 0 -- -- 57
2017-11-23 01:00:00 6.9 0 Calma 7 Sur 0 -- -- 54
2017-11-23 00:00:00 7.7 5 Sur 9 Sur 0 -- -- 51
2017-11-22 23:00:00 8.1 3 Sur 9 Sur 0 -- -- 48
2017-11-22 22:00:00 8.6 3 Sur 14 Sur 0 -- -- 47
2017-11-22 21:00:00 9.1 0 Calma 3 Este 0 -- -- 50
2017-11-22 20:00:00 10.2 0 Calma 3 Este 0 -- -- 46
2017-11-22 19:00:00 11.9 0 Calma 4 Oeste 0 -- -- 41
2017-11-22 18:00:00 14.3 0 Calma 8 Sudoeste 0 -- -- 35
2017-11-22 17:00:00 16.7 5 Sudoeste 17 Sur 0 -- -- 30
2017-11-22 16:00:00 17.6 9 Sur 15 Sur 0 -- -- 28
2017-11-22 15:00:00 17 5 Sudoeste 13 Sur 0 -- -- 30
2017-11-22 14:00:00 15.7 8 Sur 13 Sur 0 -- -- 32
2017-11-22 13:00:00 13.7 5 Sur 9 Sudoeste 0 -- -- 36
2017-11-22 12:00:00 12.1 2 Sur 6 Sudeste 0 -- -- 38
2017-11-22 11:00:00 9.7 4 Sudeste 8 Sudeste 0 -- -- 43
2017-11-22 10:00:00 5.1 3 Sudeste 10 Sudeste 0 -- -- 55
2017-11-22 09:00:00 0.7 0 Calma 5 Oeste 0 -- -- 68
2017-11-22 08:00:00 1.2 0 Calma 3 Norte 0 -- -- 66
2017-11-22 07:00:00 1.4 0 Calma 3 Nordeste 0 -- -- 63
2017-11-22 06:00:00 2.2 0 Calma 6 Sudeste 0 -- -- 63
2017-11-22 05:00:00 3.4 0 Calma 7 Este 0 -- -- 60
2017-11-22 04:00:00 4.2 2 Este 7 Sudeste 0 -- -- 55
2017-11-22 03:00:00 5 0 Calma 6 Este 0 -- -- 57
2017-11-22 02:00:00 4.4 0 Calma 5 Sur 0 -- -- 63
2017-11-22 01:00:00 4.7 0 Calma 0 Calma 0 -- -- 62
2017-11-22 00:00:00 5.5 0 Calma 2 Norte 0 -- -- 61
2017-11-21 23:00:00 6.2 0 Calma 3 Oeste 0 -- -- 57
2017-11-21 22:00:00 7.7 0 Calma 2 Oeste 0 -- -- 55
2017-11-21 21:00:00 8.9 0 Calma 2 Sur 0 -- -- 48
2017-11-21 20:00:00 9.9 0 Calma 2 Sudeste 0 -- -- 48
2017-11-21 19:00:00 11.4 0 Calma 0 Calma 0 -- -- 45
2017-11-21 18:00:00 14 0 Calma 5 Sudoeste 0 -- -- 39
2017-11-21 17:00:00 16.3 2 Sudoeste 7 Sur 0 -- -- 31
2017-11-21 16:00:00 16.9 3 Sur 6 Sudeste 0 -- -- 30
2017-11-21 15:00:00 16.8 3 Sur 8 Sudoeste 0 -- -- 33
2017-11-21 14:00:00 15.5 3 Oeste 8 Sur 0 -- -- 35
2017-11-21 13:00:00 14 4 Sur 8 Sur 0 -- -- 37
2017-11-21 12:00:00 12.2 3 Sur 9 Sur 0 -- -- 40
2017-11-21 11:00:00 10.1 4 Sur 8 Sur 0 -- -- 45
2017-11-21 10:00:00 5.7 2 Este 7 Sudeste 0 -- -- 58
2017-11-21 09:00:00 1.3 2 Sur 3 Sur 0 -- -- 73
2017-11-21 08:00:00 1.2 0 Calma 2 Este 0 -- -- 74
2017-11-21 07:00:00 1.1 0 Calma 0 Calma 0 -- -- 72
2017-11-21 06:00:00 1.7 0 Calma 3 Norte 0 -- -- 69
2017-11-21 05:00:00 2.2 0 Calma 2 Sudoeste 0 -- -- 72
2017-11-21 04:00:00 2.8 0 Calma 2 Oeste 0 -- -- 70
2017-11-21 03:00:00 3.7 0 Calma 2 Nordeste 0 -- -- 68
2017-11-21 02:00:00 4 0 Calma 3 Norte 0 -- -- 68
2017-11-21 01:00:00 5 0 Calma 3 Oeste 0 -- -- 66
2017-11-21 00:00:00 5.9 0 Calma 4 Nordeste 0 -- -- 60
2017-11-20 23:00:00 6.4 0 Calma 5 Oeste 0 -- -- 64
2017-11-20 22:00:00 7.7 0 Calma 3 Sudoeste 0 -- -- 62
2017-11-20 21:00:00 8.7 0 Calma 0 Calma 0 -- -- 57
2017-11-20 20:00:00 9.9 0 Calma 2 Este 0 -- -- 52
2017-11-20 19:00:00 11.5 0 Calma 0 Calma 0 -- -- 47
2017-11-20 18:00:00 13.9 0 Calma 6 Sudoeste 0 -- -- 41
2017-11-20 17:00:00 16.1 3 Sudoeste 8 Oeste 0 -- -- 32
2017-11-20 16:00:00 16.8 2 Sur 9 Sur 0 -- -- 33
2017-11-20 15:00:00 16.5 4 Sudoeste 10 Sur 0 -- -- 36
2017-11-20 14:00:00 15.4 5 Sur 11 Sudoeste 0 -- -- 40
2017-11-20 13:00:00 13.7 3 Sur 7 Sur 0 -- -- 44
2017-11-20 12:00:00 12.5 0 Calma 4 Sur 0 -- -- 46
2017-11-20 11:00:00 9.8 0 Calma 4 Sur 0 -- -- 54
2017-11-20 10:00:00 5.4 0 Calma 2 Sudoeste 0 -- -- 64
2017-11-20 09:00:00 0.5 0 Calma 6 Noroeste 0 -- -- 80
2017-11-20 08:00:00 0.1 0 Calma 2 Oeste 0 -- -- 80
2017-11-20 07:00:00 0.9 0 Calma 3 Sur 0 -- -- 80
2017-11-20 06:00:00 1.6 0 Calma 3 Sur 0 -- -- 79
2017-11-20 05:00:00 2 0 Calma 0 Calma 0 -- -- 80
2017-11-20 04:00:00 2.2 0 Calma 3 Oeste 0 -- -- 79
2017-11-20 03:00:00 2.9 0 Calma 2 Oeste 0 -- -- 76
2017-11-20 02:00:00 3.9 0 Calma 4 Sudoeste 0 -- -- 73
2017-11-20 01:00:00 5.1 0 Calma 4 Norte 0 -- -- 70
2017-11-20 00:00:00 6 2 Norte 4 Norte 0 -- -- 64
2017-11-19 23:00:00 6.3 0 Calma 3 Norte 0 -- -- 65
2017-11-19 22:00:00 7.2 0 Calma 4 Norte 0 -- -- 62
2017-11-19 21:00:00 8.4 0 Calma 0 Calma 0 -- -- 63
2017-11-19 20:00:00 9.7 0 Calma 3 Norte 0 -- -- 57
2017-11-19 19:00:00 11.2 0 Calma 4 Noroeste 0 -- -- 53
2017-11-19 18:00:00 13.9 0 Calma 6 Norte 0 -- -- 47
2017-11-19 17:00:00 16.2 4 Norte 9 Noroeste 0 -- -- 39
2017-11-19 16:00:00 16.5 3 Norte 9 Noroeste 0 -- -- 38
2017-11-19 15:00:00 16.1 3 Oeste 9 Noroeste 0 -- -- 43
2017-11-19 14:00:00 14.9 3 Noroeste 8 Noroeste 0 -- -- 48
2017-11-19 13:00:00 13.5 2 Nordeste 10 Sur 0 -- -- 52
2017-11-19 12:00:00 12.4 3 Sudeste 8 Este 0 -- -- 55
2017-11-19 11:00:00 9.9 0 Calma 4 Norte 0 -- -- 55
2017-11-19 10:00:00 6.2 0 Calma 6 Nordeste 0 -- -- 64
2017-11-19 09:00:00 2.5 3 Norte 6 Norte 0 -- -- 71
2017-11-19 08:00:00 2.2 0 Calma 4 Norte 0 -- -- 72
2017-11-19 07:00:00 2.5 0 Calma 3 Noroeste 0 -- -- 71
2017-11-19 06:00:00 3.8 0 Calma 5 Nordeste 0 -- -- 69
2017-11-19 05:00:00 5.9 0 Calma 12 Sudeste 0 -- -- 71
2017-11-19 04:00:00 6 3 Sudeste 14 Este 0 -- -- 62
2017-11-19 03:00:00 6.6 4 Sudeste 18 Este 0 -- -- 63
2017-11-19 02:00:00 6.3 3 Este 8 Este 0 -- -- 60
2017-11-19 01:00:00 5.8 0 Calma 9 Nordeste 0 -- -- 64
2017-11-19 00:00:00 6.2 0 Calma 6 Este 0 -- -- 63
2017-11-18 23:00:00 7.3 0 Calma 4 Sudoeste 0 -- -- 59
2017-11-18 22:00:00 8.4 2 Norte 4 Norte 0 -- -- 54
2017-11-18 21:00:00 9.1 0 Calma 3 Norte 0 -- -- 58
2017-11-18 20:00:00 10.1 0 Calma 0 Calma 0 -- -- 55
2017-11-18 19:00:00 11.7 0 Calma 3 Noroeste 0 -- -- 50
2017-11-18 18:00:00 14.3 0 Calma 4 Nordeste 0 -- -- 41
2017-11-18 17:00:00 16.4 0 Calma 10 Oeste 0 -- -- 35
2017-11-18 16:00:00 16.8 0 Calma 7 Norte 0 -- -- 34
2017-11-18 15:00:00 16.5 3 Noroeste 9 Norte 0 -- -- 35
2017-11-18 14:00:00 15.2 3 Noroeste 6 Noroeste 0 -- -- 38
2017-11-18 13:00:00 13.6 2 Noroeste 6 Este 0 -- -- 40
2017-11-18 12:00:00 12.8 3 Sudeste 7 Sur 0 -- -- 42
2017-11-18 11:00:00 10 0 Calma 5 Sur 0 -- -- 49
2017-11-18 10:00:00 6.1 0 Calma 3 Sur 0 -- -- 61
2017-11-18 09:00:00 1.8 0 Calma 0 Calma 0 -- -- 73
2017-11-18 08:00:00 1.2 0 Calma 2 Sur 0 -- -- 72
2017-11-18 07:00:00 2.2 0 Calma 0 Calma 0 -- -- 71
2017-11-18 06:00:00 2.6 0 Calma 2 Norte 0 -- -- 73
2017-11-18 05:00:00 3.1 0 Calma 0 Calma 0 -- -- 71
2017-11-18 04:00:00 3.5 0 Calma 0 Calma 0 -- -- 68
2017-11-18 03:00:00 4.3 0 Calma 2 Oeste 0 -- -- 71
2017-11-18 02:00:00 5.2 0 Calma 0 Calma 0 -- -- 68
2017-11-18 01:00:00 5.6 0 Calma 2 Noroeste 0 -- -- 66
2017-11-18 00:00:00 6.5 0 Calma 5 Sudoeste 0 -- -- 61
2017-11-17 23:00:00 7.5 0 Calma 3 Sudoeste 0 -- -- 59
2017-11-17 22:00:00 8.5 0 Calma 0 Calma 0 -- -- 61
2017-11-17 21:00:00 9.6 0 Calma 2 Nordeste 0 -- -- 55
2017-11-17 20:00:00 10.8 0 Calma 2 Sudeste 0 -- -- 52
2017-11-17 19:00:00 12.4 0 Calma 4 Sudeste 0 -- -- 46
2017-11-17 18:00:00 14.5 0 Calma 3 Norte 0 -- -- 42
2017-11-17 17:00:00 16.9 0 Calma 9 Norte 0 -- -- 34
2017-11-17 16:00:00 17.1 3 Norte 10 Norte 0 -- -- 32
2017-11-17 15:00:00 16.4 3 Norte 9 Oeste 0 -- -- 33
2017-11-17 14:00:00 14.8 2 Norte 9 Noroeste 0 -- -- 37
2017-11-17 13:00:00 12.9 2 Norte 6 Nordeste 0 -- -- 41
2017-11-17 12:00:00 11.4 2 Nordeste 4 Sur 0 -- -- 46
2017-11-17 11:00:00 9.2 2 Sudoeste 5 Sur 0 -- -- 51
2017-11-17 10:00:00 6 2 Sur 4 Sur 0 -- -- 59
2017-11-17 09:00:00 2 0 Calma 2 Nordeste 0 -- -- 71
2017-11-17 08:00:00 1.4 0 Calma 2 Norte 0 -- -- 74
2017-11-17 07:00:00 1.6 0 Calma 2 Norte 0 -- -- 71
2017-11-17 06:00:00 1.6 0 Calma 4 Sur 0 -- -- 71
2017-11-17 05:00:00 2.4 3 Sur 5 Sur 0 -- -- 70
2017-11-17 04:00:00 3.5 0 Calma 2 Nordeste 0 -- -- 69
2017-11-17 03:00:00 3.9 0 Calma 2 Norte 0 -- -- 66
2017-11-17 02:00:00 4.4 0 Calma 4 Este 0 -- -- 63
2017-11-17 01:00:00 5.3 0 Calma 4 Norte 0 -- -- 59
2017-11-17 00:00:00 6.4 0 Calma 3 Nordeste 0 -- -- 57
2017-11-16 23:00:00 6.9 0 Calma 4 Norte 0 -- -- 55
2017-11-16 22:00:00 7.7 0 Calma 3 Norte 0 -- -- 55
2017-11-16 21:00:00 9.1 0 Calma 5 Nordeste 0 -- -- 51
2017-11-16 20:00:00 10.2 0 Calma 3 Nordeste 0 -- -- 46
2017-11-16 19:00:00 11.7 0 Calma 5 Nordeste 0 -- -- 43
2017-11-16 18:00:00 14.5 0 Calma 7 Norte 0 -- -- 36
2017-11-16 17:00:00 16.6 4 Norte 10 Norte 0 -- -- 29
2017-11-16 16:00:00 17 4 Norte 13 Noroeste 0 -- -- 28
2017-11-16 15:00:00 16.3 4 Oeste 13 Oeste 0 -- -- 31
2017-11-16 14:00:00 14.9 4 Noroeste 11 Oeste 0 -- -- 33
2017-11-16 13:00:00 13.4 4 Norte 8 Sudoeste 0 -- -- 35
2017-11-16 12:00:00 11.5 3 Oeste 6 Oeste 0 -- -- 39
2017-11-16 11:00:00 9.6 0 Calma 4 Norte 0 -- -- 45
2017-11-16 10:00:00 5 2 Nordeste 4 Nordeste 0 -- -- 55
2017-11-16 09:00:00 0.8 0 Calma 2 Noroeste 0 -- -- 67
2017-11-16 08:00:00 0.2 0 Calma 2 Sur 0 -- -- 72
2017-11-16 07:00:00 0.6 0 Calma 2 Sudoeste 0 -- -- 69
2017-11-16 06:00:00 1.1 0 Calma 0 Calma 0 -- -- 68
2017-11-16 05:00:00 1.5 0 Calma 0 Calma 0 -- -- 68
2017-11-16 04:00:00 2.2 0 Calma 0 Calma 0 -- -- 66
2017-11-16 03:00:00 2.7 0 Calma 0 Calma 0 -- -- 61
2017-11-16 02:00:00 3.2 0 Calma 2 Nordeste 0 -- -- 61
2017-11-16 01:00:00 4.4 0 Calma 4 Norte 0 -- -- 57
2017-11-16 00:00:00 4.6 0 Calma 4 Sudoeste 0 -- -- 58
2017-11-15 23:00:00 6 3 Sudoeste 6 Sudoeste 0 -- -- 58
2017-11-15 22:00:00 7 0 Calma 0 Calma 0 -- -- 55
2017-11-15 21:00:00 7.9 0 Calma 2 Nordeste 0 -- -- 50
2017-11-15 20:00:00 9 0 Calma 2 Norte 0 -- -- 47
2017-11-15 19:00:00 10.4 0 Calma 3 Sur 0 -- -- 42
2017-11-15 18:00:00 12.6 0 Calma 5 Oeste 0 -- -- 36
2017-11-15 17:00:00 14.4 2 Noroeste 6 Noroeste 0 -- -- 30
2017-11-15 16:00:00 14.7 4 Oeste 9 Oeste 0 -- -- 29
2017-11-15 15:00:00 14.1 3 Sur 6 Oeste 0 -- -- 30
2017-11-15 14:00:00 13 3 Sur 6 Sur 0 -- -- 30
2017-11-15 13:00:00 11.5 2 Noroeste 6 Sudeste 0 -- -- 35
2017-11-15 12:00:00 10.2 0 Calma 6 Sudeste 0 -- -- 39
2017-11-15 11:00:00 8.5 2 Sudeste 8 Sur 0 -- -- 43
2017-11-15 10:00:00 5.1 0 Calma 3 Oeste 0 -- -- 47
2017-11-15 09:00:00 1.3 0 Calma 4 Noroeste 0 -- -- 54
2017-11-15 08:00:00 0.4 0 Calma 5 Nordeste 0 -- -- 57
2017-11-15 07:00:00 0.8 0 Calma 4 Norte 0 -- -- 54
2017-11-15 06:00:00 1.3 0 Calma 5 Noroeste 0 -- -- 55
2017-11-15 05:00:00 2.5 2 Norte 7 Nordeste 0 -- -- 50
2017-11-15 04:00:00 3.3 3 Nordeste 10 Sudeste 0 -- -- 47
2017-11-15 03:00:00 4.2 3 Sudeste 10 Este 0 -- -- 45
2017-11-15 02:00:00 3.9 0 Calma 5 Este 0 -- -- 47
2017-11-15 01:00:00 4 0 Calma 3 Este 0 -- -- 50
2017-11-15 00:00:00 4.5 0 Calma 4 Oeste 0 -- -- 54
2017-11-14 23:00:00 5.2 0 Calma 3 Sudoeste 0 -- -- 52
2017-11-14 22:00:00 6.1 0 Calma 0 Calma 0 -- -- 47
2017-11-14 21:00:00 7.1 0 Calma 3 Sudeste 0 -- -- 41
2017-11-14 20:00:00 8.1 0 Calma 7 Oeste 0 -- -- 37
2017-11-14 19:00:00 9.6 0 Calma 5 Sur 0 -- -- 35
2017-11-14 18:00:00 11.9 0 Calma 7 Nordeste 0 -- -- 28
2017-11-14 17:00:00 13.3 3 Nordeste 10 Norte 0 -- -- 22
2017-11-14 16:00:00 13.4 5 Norte 15 Norte 0 -- -- 22
2017-11-14 15:00:00 13.2 6 Nordeste 14 Norte 0 -- -- 24
2017-11-14 14:00:00 12.3 7 Norte 19 Nordeste 0 -- -- 27
2017-11-14 13:00:00 11.3 6 Norte 19 Norte 0 -- -- 31
2017-11-14 12:00:00 9.6 8 Nordeste 25 Nordeste 0 -- -- 35
2017-11-14 11:00:00 7.8 13 Nordeste 24 Nordeste 0 -- -- 42
2017-11-14 10:00:00 5.8 9 Norte 22 Norte 0 -- -- 53
2017-11-14 09:00:00 2.7 6 Norte 16 Norte 0 -- -- 64
2017-11-14 08:00:00 2 2 Norte 16 Norte 0 -- -- 66
2017-11-14 07:00:00 2.4 7 Norte 15 Noroeste 0 -- -- 64
2017-11-14 06:00:00 2.7 4 Norte 13 Norte 0 -- -- 64
2017-11-14 05:00:00 2.8 2 Norte 10 Norte 0 -- -- 62
2017-11-14 04:00:00 3 2 Noroeste 8 Noroeste 0 -- -- 61
2017-11-14 03:00:00 3.4 0 Calma 10 Norte 0 -- -- 59
2017-11-14 02:00:00 3.8 3 Norte 14 Nordeste 0 -- -- 56
2017-11-14 01:00:00 4.7 0 Calma 16 Norte 0 -- -- 55
2017-11-14 00:00:00 5.3 2 Noroeste 13 Nordeste 0 -- -- 56
2017-11-13 23:00:00 6.3 5 Norte 17 Nordeste 0 -- -- 52
2017-11-13 22:00:00 7.6 6 Nordeste 18 Norte 0 -- -- 50
2017-11-13 21:00:00 8.6 5 Norte 23 Norte 0 -- -- 49
2017-11-13 20:00:00 9.7 9 Norte 31 Nordeste 0 -- -- 47
2017-11-13 19:00:00 10.7 14 Norte 28 Norte 0 -- -- 43
2017-11-13 18:00:00 11.9 8 Norte 27 Norte 0 -- -- 41
2017-11-13 17:00:00 13.1 12 Norte 33 Noroeste 0 -- -- 37
2017-11-13 16:00:00 14 14 Norte 34 Norte 0 -- -- 35
2017-11-13 15:00:00 14.4 13 Norte 44 Norte 0 -- -- 34
2017-11-13 14:00:00 14.4 17 Norte 35 Nordeste 0 -- -- 37
2017-11-13 13:00:00 14.3 18 Norte 36 Norte 0 -- -- 36
2017-11-13 12:00:00 13.3 11 Norte 28 Norte 0 -- -- 46
2017-11-13 11:00:00 11.7 14 Norte 28 Norte 0 -- -- 55
2017-11-13 10:00:00 8.6 2 Noroeste 9 Norte 0 -- -- 75
2017-11-13 09:00:00 5.3 2 Norte 8 Norte 0 -- -- 85
2017-11-13 08:00:00 4.7 3 Noroeste 10 Norte 0 -- -- 85
2017-11-13 07:00:00 4.5 2 Noroeste 8 Norte 0 -- -- 83
2017-11-13 06:00:00 4.6 0 Calma 4 Noroeste 0 -- -- 80
2017-11-13 05:00:00 5.4 0 Calma 6 Noroeste 0 -- -- 75
2017-11-13 04:00:00 5.9 2 Norte 5 Norte 0 -- -- 72
2017-11-13 03:00:00 6.6 2 Noroeste 9 Noroeste 0 -- -- 68
2017-11-13 02:00:00 7.3 3 Norte 10 Noroeste 0 -- -- 66
2017-11-13 01:00:00 7.2 2 Noroeste 5 Norte 0 -- -- 66
2017-11-13 00:00:00 7.8 2 Norte 6 Norte 0 -- -- 64
2017-11-12 23:00:00 8.5 0 Calma 8 Noroeste 0 -- -- 61
2017-11-12 22:00:00 9.7 2 Noroeste 6 Noroeste 0 -- -- 58
2017-11-12 21:00:00 10.2 0 Calma 5 Norte 0 -- -- 55
2017-11-12 20:00:00 11.3 3 Oeste 4 Oeste 0 -- -- 52
2017-11-12 19:00:00 13.4 0 Calma 10 Norte 0 -- -- 46
2017-11-12 18:00:00 15.8 3 Noroeste 14 Noroeste 0 -- -- 38
2017-11-12 17:00:00 17.5 6 Norte 17 Norte 0 -- -- 33
2017-11-12 16:00:00 17.8 6 Noroeste 16 Noroeste 0 -- -- 34
2017-11-12 15:00:00 17.4 5 Oeste 13 Noroeste 0 -- -- 39
2017-11-12 14:00:00 16.2 6 Noroeste 16 Nordeste 0 -- -- 42
2017-11-12 13:00:00 14.6 5 Noroeste 11 Noroeste 0 -- -- 48
2017-11-12 12:00:00 12.9 3 Oeste 8 Oeste 0 -- -- 54
2017-11-12 11:00:00 10.5 0 Calma 5 Sudoeste 0 -- -- 61
2017-11-12 10:00:00 7.3 0 Calma 6 Sur 0 -- -- 74
2017-11-12 09:00:00 3.3 0 Calma 2 Nordeste 0 -- -- 83
2017-11-12 08:00:00 2.8 0 Calma 5 Sur 0 -- -- 84
2017-11-12 07:00:00 3.2 0 Calma 2 Sudoeste 0 -- -- 82
2017-11-12 06:00:00 3.9 0 Calma 5 Sudoeste 0 -- -- 79
2017-11-12 05:00:00 4.6 0 Calma 4 Nordeste 0 -- -- 77
2017-11-12 04:00:00 4.7 0 Calma 4 Norte 0 -- -- 77
2017-11-12 03:00:00 5.3 0 Calma 3 Norte 0 -- -- 75
2017-11-12 02:00:00 6 0 Calma 5 Oeste 0 -- -- 74
2017-11-12 01:00:00 6.8 0 Calma 4 Oeste 0 -- -- 73
2017-11-12 00:00:00 7.7 0 Calma 8 Nordeste 0 -- -- 66
2017-11-11 23:00:00 8.3 0 Calma 2 Norte 0 -- -- 67
2017-11-11 22:00:00 9.3 0 Calma 6 Noroeste 0 -- -- 61
2017-11-11 21:00:00 10.5 0 Calma 4 Norte 0 -- -- 58
2017-11-11 20:00:00 12.3 3 Norte 9 Norte 0 -- -- 52
2017-11-11 19:00:00 13.4 0 Calma 10 Norte 0 -- -- 48
2017-11-11 18:00:00 15.4 3 Norte 16 Norte 0 -- -- 44
2017-11-11 17:00:00 16.9 7 Norte 16 Norte 0 -- -- 41
2017-11-11 16:00:00 17.4 7 Norte 21 Norte 0 -- -- 40
2017-11-11 15:00:00 17.2 7 Norte 22 Norte 0 -- -- 42
2017-11-11 14:00:00 16.5 11 Norte 22 Norte 0 -- -- 43
2017-11-11 13:00:00 15.4 8 Norte 20 Norte 0 -- -- 48
2017-11-11 12:00:00 14.2 9 Norte 21 Noroeste 0 -- -- 52
2017-11-11 11:00:00 11.8 4 Noroeste 12 Noroeste 0 -- -- 64
2017-11-11 10:00:00 8.4 3 Oeste 7 Norte 0 -- -- 82
2017-11-11 09:00:00 4.2 3 Noroeste 8 Noroeste 0 -- -- 90
2017-11-11 08:00:00 3.8 0 Calma 4 Noroeste 0 -- -- 90
2017-11-11 07:00:00 4.1 0 Calma 3 Norte 0 -- -- 89
2017-11-11 06:00:00 4.2 0 Calma 3 Oeste 0 -- -- 88
2017-11-11 05:00:00 4.8 0 Calma 3 Norte 0 -- -- 87
2017-11-11 04:00:00 5 0 Calma 2 Oeste 0 -- -- 87
2017-11-11 03:00:00 5.3 0 Calma 2 Este 0 -- -- 85
2017-11-11 02:00:00 5.7 0 Calma 8 Sur 0 -- -- 83
2017-11-11 01:00:00 6.7 0 Calma 5 Oeste 0 -- -- 80
2017-11-11 00:00:00 8.3 0 Calma 13 Nordeste 0 -- -- 74
2017-11-10 23:00:00 9.6 6 Norte 13 Norte 0 -- -- 72
2017-11-10 22:00:00 10.3 5 Norte 13 Norte 0 -- -- 68
2017-11-10 21:00:00 11 4 Norte 11 Norte 0 -- -- 62
2017-11-10 20:00:00 12.2 4 Norte 17 Nordeste 0 -- -- 57
2017-11-10 19:00:00 13.9 5 Norte 19 Norte 0 -- -- 50
2017-11-10 18:00:00 15.2 12 Nordeste 27 Nordeste 0 -- -- 46
2017-11-10 17:00:00 15.8 10 Norte 28 Norte 0 -- -- 44
2017-11-10 16:00:00 15.8 9 Norte 36 Norte 0 -- -- 45
2017-11-10 15:00:00 15.3 15 Norte 37 Nordeste 0 -- -- 46
2017-11-10 14:00:00 13.9 9 Norte 26 Norte 0 -- -- 49
2017-11-10 13:00:00 12.3 10 Norte 21 Norte 0 -- -- 50
2017-11-10 12:00:00 10.5 9 Norte 21 Noroeste 0 -- -- 51
2017-11-10 11:00:00 8.5 4 Norte 12 Norte 0 -- -- 54
2017-11-10 10:00:00 5.8 4 Norte 10 Noroeste 0 -- -- 60
2017-11-10 09:00:00 2.7 3 Norte 9 Noroeste 0 -- -- 71
2017-11-10 08:00:00 1.7 2 Noroeste 9 Norte 0 -- -- 73
2017-11-10 07:00:00 2.4 3 Noroeste 13 Norte 0 -- -- 70
2017-11-10 06:00:00 3.9 6 Norte 18 Norte 0 -- -- 65
2017-11-10 05:00:00 3.6 5 Este 14 Este 0 -- -- 66
2017-11-10 04:00:00 3.6 6 Norte 14 Nordeste 0 -- -- 67
2017-11-10 03:00:00 3.5 3 Nordeste 9 Nordeste 0 -- -- 69
2017-11-10 02:00:00 3.7 2 Norte 8 Norte 0 -- -- 70
2017-11-10 01:00:00 4.6 4 Nordeste 14 Norte 0 -- -- 68
2017-11-10 00:00:00 5.3 4 Nordeste 13 Norte 0 -- -- 67
2017-11-09 23:00:00 6.8 8 Norte 19 Nordeste 0 -- -- 62
2017-11-09 22:00:00 7.2 8 Norte 22 Norte 0 -- -- 60
2017-11-09 21:00:00 7.7 9 Norte 18 Norte 0 -- -- 58
2017-11-09 20:00:00 8.4 5 Norte 13 Nordeste 0 -- -- 53
2017-11-09 19:00:00 9.4 4 Norte 16 Norte 0 -- -- 50
2017-11-09 18:00:00 10.7 10 Norte 23 Norte 0 -- -- 46
2017-11-09 17:00:00 11.2 10 Norte 29 Norte 0 -- -- 45
2017-11-09 16:00:00 11.8 12 Norte 34 Nordeste 0 -- -- 44
2017-11-09 15:00:00 11.9 14 Norte 32 Nordeste 0 -- -- 44
2017-11-09 14:00:00 11.4 13 Norte 31 Nordeste 0 -- -- 45
2017-11-09 13:00:00 10.7 14 Norte 30 Norte 0 -- -- 46
2017-11-09 12:00:00 9.6 14 Norte 35 Norte 0 -- -- 49
2017-11-09 11:00:00 7.3 12 Norte 26 Norte 0 -- -- 59
2017-11-09 10:00:00 5.1 7 Norte 22 Norte 0 -- -- 68
2017-11-09 09:00:00 2.4 5 Norte 14 Norte 0 -- -- 76
2017-11-09 08:00:00 1.5 6 Norte 13 Norte 0 -- -- 78
2017-11-09 07:00:00 1.1 2 Noroeste 8 Noroeste 0 -- -- 80
2017-11-09 06:00:00 1.6 4 Norte 10 Norte 0 -- -- 78
2017-11-09 05:00:00 2.5 3 Norte 8 Norte 0 -- -- 76
2017-11-09 04:00:00 3 3 Norte 10 Norte 0 -- -- 76
2017-11-09 03:00:00 3.6 5 Norte 10 Norte 0 -- -- 76
2017-11-09 02:00:00 4.5 4 Norte 13 Norte 0 -- -- 73
2017-11-09 01:00:00 5.6 3 Noroeste 14 Nordeste 0 -- -- 69
2017-11-09 00:00:00 6.6 8 Nordeste 26 Nordeste 0 -- -- 64
2017-11-08 23:00:00 7.9 13 Nordeste 32 Nordeste 0 -- -- 60
2017-11-08 22:00:00 8.9 5 Norte 14 Norte 0 -- -- 52
2017-11-08 21:00:00 8.9 0 Calma 8 Noroeste 0 -- -- 54
2017-11-08 20:00:00 10.1 3 Norte 14 Noroeste 0 -- -- 49
2017-11-08 19:00:00 11.1 4 Norte 14 Norte 0 -- -- 48
2017-11-08 18:00:00 12.3 7 Norte 18 Norte 0 -- -- 43
2017-11-08 17:00:00 13.4 7 Norte 21 Norte 0 -- -- 41
2017-11-08 16:00:00 14.1 7 Norte 19 Norte 0 -- -- 40
2017-11-08 15:00:00 14.4 10 Norte 26 Norte 0 -- -- 40
2017-11-08 14:00:00 14.4 9 Norte 23 Norte 0 -- -- 42
2017-11-08 13:00:00 13.6 10 Norte 21 Norte 0 -- -- 47
2017-11-08 12:00:00 12.5 8 Norte 24 Nordeste 0 -- -- 58
2017-11-08 11:00:00 10 7 Norte 14 Norte 0 -- -- 64
2017-11-08 10:00:00 6.4 4 Norte 9 Norte 0 -- -- 73
2017-11-08 09:00:00 3.2 3 Norte 5 Norte 0 -- -- 83
2017-11-08 08:00:00 3 2 Norte 5 Nordeste 0 -- -- 85
2017-11-08 07:00:00 3.3 2 Nordeste 7 Oeste 0 -- -- 84
2017-11-08 06:00:00 4.3 2 Oeste 9 Oeste 0 -- -- 83
2017-11-08 05:00:00 4.5 0 Calma 5 Nordeste 0 -- -- 80
2017-11-08 04:00:00 5 3 Norte 7 Nordeste 0 -- -- 78
2017-11-08 03:00:00 5.3 0 Calma 6 Noroeste 0 -- -- 78
2017-11-08 02:00:00 5.4 0 Calma 3 Oeste 0 -- -- 79
2017-11-08 01:00:00 6.1 0 Calma 4 Norte 0 -- -- 75
2017-11-08 00:00:00 6.7 0 Calma 4 Oeste 0 -- -- 78
2017-11-07 23:00:00 7.6 0 Calma 3 Noroeste 0 -- -- 74
2017-11-07 22:00:00 8.6 0 Calma 5 Sur 0 -- -- 69
2017-11-07 21:00:00 9.2 0 Calma 3 Sudoeste 0 -- -- 67
2017-11-07 20:00:00 10.3 0 Calma 3 Sur 0 -- -- 63
2017-11-07 19:00:00 11.8 0 Calma 7 Sudoeste 0 -- -- 54
2017-11-07 18:00:00 14.1 0 Calma 11 Oeste 0 -- -- 46
2017-11-07 17:00:00 15.4 3 Noroeste 17 Noroeste 0 -- -- 42
2017-11-07 16:00:00 15.6 5 Noroeste 15 Noroeste 0 -- -- 42
2017-11-07 15:00:00 15.4 5 Noroeste 16 Noroeste 0 -- -- 43
2017-11-07 14:00:00 14.2 5 Noroeste 15 Oeste 0 -- -- 47
2017-11-07 13:00:00 12.6 6 Noroeste 13 Norte 0 -- -- 51
2017-11-07 12:00:00 10.8 5 Noroeste 12 Noroeste 0 -- -- 55
2017-11-07 11:00:00 9.3 4 Sur 10 Sur 0 -- -- 64
2017-11-07 10:00:00 6.8 2 Sur 4 Nordeste 0 -- -- 70
2017-11-07 09:00:00 3.2 2 Nordeste 5 Sudoeste 0 -- -- 81
2017-11-07 08:00:00 2.3 0 Calma 6 Sudoeste 0 -- -- 82
2017-11-07 07:00:00 2.5 0 Calma 5 Norte 0 -- -- 81
2017-11-07 06:00:00 2.6 2 Noroeste 8 Oeste 0 -- -- 82
2017-11-07 05:00:00 3.3 0 Calma 4 Norte 0 -- -- 79
2017-11-07 04:00:00 3.6 0 Calma 5 Noroeste 0 -- -- 80
2017-11-07 03:00:00 4.4 2 Noroeste 7 Noroeste 0 -- -- 76
2017-11-07 02:00:00 4.8 2 Norte 4 Oeste 0 -- -- 75
2017-11-07 01:00:00 5.5 0 Calma 4 Noroeste 0 -- -- 73
2017-11-07 00:00:00 6.3 0 Calma 10 Norte 0 -- -- 68
2017-11-06 23:00:00 6.9 4 Norte 10 Nordeste 0 -- -- 66
2017-11-06 22:00:00 8 4 Norte 9 Norte 0 -- -- 65
2017-11-06 21:00:00 8.8 2 Oeste 9 Norte 0 -- -- 64
2017-11-06 20:00:00 9.9 2 Oeste 10 Oeste 0 -- -- 58
2017-11-06 19:00:00 11.3 3 Norte 14 Norte 0 -- -- 51
2017-11-06 18:00:00 12.8 8 Norte 23 Nordeste 0 -- -- 43
2017-11-06 17:00:00 13.9 10 Norte 26 Nordeste 0 -- -- 42
2017-11-06 16:00:00 14.2 12 Norte 30 Norte 0 -- -- 41
2017-11-06 15:00:00 14.1 10 Norte 30 Noroeste 0 -- -- 43
2017-11-06 14:00:00 13.8 11 Norte 24 Noroeste 0 -- -- 45
2017-11-06 13:00:00 12.9 14 Nordeste 31 Nordeste 0 -- -- 48
2017-11-06 12:00:00 11.8 8 Norte 19 Norte 0 -- -- 55
2017-11-06 11:00:00 10.2 7 Norte 17 Nordeste 0 -- -- 63
2017-11-06 10:00:00 7.6 6 Norte 13 Norte 0 -- -- 74
2017-11-06 09:00:00 4.7 4 Norte 7 Norte 0 -- -- 83
2017-11-06 08:00:00 3.7 0 Calma 6 Norte 0 -- -- 86
2017-11-06 07:00:00 4 2 Norte 9 Noroeste 0 -- -- 86
2017-11-06 06:00:00 4.1 3 Noroeste 9 Noroeste 0 -- -- 87
2017-11-06 05:00:00 4.7 0 Calma 3 Norte 0 -- -- 84
2017-11-06 04:00:00 5 0 Calma 5 Norte 0 -- -- 82
2017-11-06 03:00:00 5.7 2 Norte 6 Norte 0 -- -- 78
2017-11-06 02:00:00 6.3 0 Calma 6 Noroeste 0 -- -- 77
2017-11-06 01:00:00 6.8 0 Calma 5 Noroeste 0 -- -- 75
2017-11-06 00:00:00 7.3 2 Norte 6 Norte 0 -- -- 73
2017-11-05 23:00:00 7.8 0 Calma 5 Nordeste 0 -- -- 72
2017-11-05 22:00:00 8.6 3 Norte 8 Nordeste 0 -- -- 69
2017-11-05 21:00:00 9.4 0 Calma 10 Nordeste 0 -- -- 66
2017-11-05 20:00:00 10.6 4 Norte 13 Norte 0 -- -- 61
2017-11-05 19:00:00 12.2 5 Norte 15 Norte 0 -- -- 56
2017-11-05 18:00:00 13.8 7 Norte 23 Norte 0 -- -- 50
2017-11-05 17:00:00 14.8 11 Norte 24 Norte 0 -- -- 51
2017-11-05 16:00:00 15.3 10 Norte 33 Norte 0 -- -- 50
2017-11-05 15:00:00 15.9 12 Norte 28 Norte 0 -- -- 48
2017-11-05 14:00:00 15.5 12 Norte 28 Noroeste 0 -- -- 52
2017-11-05 13:00:00 15.6 9 Norte 28 Nordeste 0 -- -- 52
2017-11-05 12:00:00 15.2 9 Norte 22 Norte 0 -- -- 55
2017-11-05 11:00:00 13.9 9 Norte 19 Norte 0 -- -- 64
2017-11-05 10:00:00 12.5 10 Norte 21 Norte 0 -- -- 74
2017-11-05 09:00:00 10.7 5 Norte 15 Noroeste 0 -- -- 85
2017-11-05 08:00:00 10.9 4 Noroeste 15 Noroeste 0 -- -- 87
2017-11-05 07:00:00 10.9 3 Noroeste 10 Noroeste 0 -- -- 93
2017-11-05 06:00:00 11 2 Noroeste 13 Norte 0 -- -- 94
2017-11-05 05:00:00 11 3 Noroeste 9 Norte 0 -- -- 95
2017-11-05 04:00:00 10.7 2 Noroeste 8 Noroeste 0 -- -- 95
2017-11-05 03:00:00 10.5 0 Calma 6 Oeste 0 -- -- 96
2017-11-05 02:00:00 10.3 0 Calma 8 Oeste 0 -- -- 96
2017-11-05 01:00:00 10.3 0 Calma 6 Sudoeste 0 -- -- 96
2017-11-05 00:00:00 10.4 2 Oeste 6 Oeste 0 -- -- 95
2017-11-04 23:00:00 10.6 3 Oeste 8 Oeste 0 -- -- 94
2017-11-04 22:00:00 11.2 3 Sudoeste 10 Oeste 0 -- -- 93
2017-11-04 21:00:00 12.1 2 Sudoeste 9 Oeste 0 -- -- 90
2017-11-04 20:00:00 12.7 3 Sudoeste 8 Sudoeste 0 -- -- 89
2017-11-04 19:00:00 12.9 4 Oeste 11 Oeste 0 -- -- 89
2017-11-04 18:00:00 13.1 0 Calma 5 Sur 0 -- -- 89
2017-11-04 17:00:00 13.2 0 Calma 5 Norte 0.4 -- -- 87
2017-11-04 16:00:00 12.5 5 Norte 15 Norte 1 -- -- 90
2017-11-04 15:00:00 13.4 2 Noroeste 16 Sur 3.4 -- -- 87
2017-11-04 14:00:00 14.8 4 Oeste 25 Oeste 0.8 -- -- 82
2017-11-04 13:00:00 15.8 9 Sudoeste 26 Sudoeste 0 -- -- 67
2017-11-04 12:00:00 14.5 8 Sudoeste 22 Sudoeste 0 -- -- 73
2017-11-04 11:00:00 14.4 6 Sudoeste 26 Sudoeste 0 -- -- 70
2017-11-04 10:00:00 13.6 11 Sur 28 Sudoeste 0 -- -- 74
2017-11-04 09:00:00 12.1 5 Sudoeste 15 Sudoeste 0 -- -- 84
2017-11-04 08:00:00 12 4 Sur 21 Sudoeste 0 -- -- 85
2017-11-04 07:00:00 11.8 5 Sur 12 Sur 0 -- -- 85
2017-11-04 06:00:00 11.8 5 Sur 11 Sudoeste 0 -- -- 85
2017-11-04 05:00:00 11.7 4 Sur 10 Sur 0 -- -- 82
2017-11-04 04:00:00 12.4 4 Sur 16 Sur 0 -- -- 78
2017-11-04 03:00:00 13.3 9 Sur 22 Sudoeste 0 -- -- 73
2017-11-04 02:00:00 13.2 10 Sur 19 Sur 0 -- -- 73
2017-11-04 01:00:00 13 9 Sur 16 Sudeste 0 -- -- 73
2017-11-04 00:00:00 13.5 4 Sur 12 Sur 0 -- -- 70
2017-11-03 23:00:00 14.6 7 Sudoeste 15 Sur 0 -- -- 66
2017-11-03 22:00:00 14.9 7 Sur 15 Sur 0 -- -- 69
2017-11-03 21:00:00 15 4 Sur 8 Sur 0 -- -- 69
2017-11-03 20:00:00 15.6 3 Sur 6 Sudoeste 0 -- -- 67
2017-11-03 19:00:00 16.6 0 Calma 8 Oeste 0 -- -- 64
2017-11-03 18:00:00 17.8 3 Sudoeste 14 Oeste 0 -- -- 60
2017-11-03 17:00:00 18.5 6 Sudoeste 16 Sudoeste 0 -- -- 57
2017-11-03 16:00:00 19.1 5 Sudoeste 17 Sudoeste 0 -- -- 55
2017-11-03 15:00:00 18.9 6 Sudoeste 19 Sur 0 -- -- 56
2017-11-03 14:00:00 18.7 8 Sudoeste 20 Sudoeste 0 -- -- 55
2017-11-03 13:00:00 19.2 6 Sudoeste 15 Sur 0 -- -- 51
2017-11-03 12:00:00 17 6 Sur 13 Sur 0 -- -- 62
2017-11-03 11:00:00 14.8 5 Sur 10 Sur 0 -- -- 71
2017-11-03 10:00:00 13.1 2 Sur 8 Sur 0 -- -- 76
2017-11-03 09:00:00 12 0 Calma 8 Sur 0 -- -- 83
2017-11-03 08:00:00 11.7 2 Sudeste 9 Este 0 -- -- 89
2017-11-03 07:00:00 11.7 4 Sudeste 13 Sudeste 0 -- -- 89
2017-11-03 06:00:00 11.9 4 Sudeste 13 Este 0 -- -- 86
2017-11-03 05:00:00 12.2 2 Sur 9 Sudeste 0 -- -- 79
2017-11-03 04:00:00 12.2 2 Sudeste 11 Sudeste 0 -- -- 75
2017-11-03 03:00:00 12.8 4 Sudeste 11 Sudeste 0 -- -- 76
2017-11-03 02:00:00 13.1 3 Sudeste 13 Sudeste 0 -- -- 74
2017-11-03 01:00:00 13 0 Calma 6 Sudeste 0 -- -- 71
2017-11-03 00:00:00 13.2 2 Sudeste 8 Este 0 -- -- 68
2017-11-02 23:00:00 13.2 0 Calma 2 Sudoeste 0 -- -- 69
2017-11-02 22:00:00 13.7 0 Calma 0 Calma 0 -- -- 68
2017-11-02 21:00:00 14.4 0 Calma 3 Nordeste 0 -- -- 65
2017-11-02 20:00:00 15.6 0 Calma 5 Norte 0 -- -- 60
2017-11-02 19:00:00 17.2 2 Norte 7 Noroeste 0 -- -- 54
2017-11-02 18:00:00 18.7 3 Norte 9 Norte 0 -- -- 49
2017-11-02 17:00:00 19.7 3 Oeste 10 Oeste 0 -- -- 45
2017-11-02 16:00:00 20.3 2 Oeste 15 Sudoeste 0 -- -- 42
2017-11-02 15:00:00 21.2 7 Sudoeste 16 Sudoeste 0 -- -- 39
2017-11-02 14:00:00 20.7 5 Sudoeste 13 Sudoeste 0 -- -- 44
2017-11-02 13:00:00 19.3 5 Sur 10 Sudeste 0 -- -- 54
2017-11-02 12:00:00 17.2 4 Sudeste 10 Este 0 -- -- 65
2017-11-02 11:00:00 15.2 4 Sur 12 Sudeste 0 -- -- 75
2017-11-02 10:00:00 13.3 4 Sudeste 15 Sudeste 0 -- -- 85
2017-11-02 09:00:00 11.7 4 Sudeste 13 Sudeste 0 -- -- 90
2017-11-02 08:00:00 11.3 4 Sudeste 17 Sudeste 0 -- -- 92
2017-11-02 07:00:00 11.4 3 Sudeste 12 Este 0 -- -- 92
2017-11-02 06:00:00 11.4 3 Sudeste 15 Sudeste 0 -- -- 92
2017-11-02 05:00:00 11.6 5 Sudeste 14 Sudeste 0 -- -- 91
2017-11-02 04:00:00 11.9 3 Sudeste 12 Sudeste 0 -- -- 90
2017-11-02 03:00:00 12.1 4 Sudeste 12 Sudeste 0 -- -- 88
2017-11-02 02:00:00 12.3 3 Sudeste 11 Sudeste 0 -- -- 85
2017-11-02 01:00:00 12.7 3 Sudeste 12 Sudeste 0 -- -- 80
2017-11-02 00:00:00 12.8 3 Sudeste 14 Sudeste 0 -- -- 69
2017-11-01 23:00:00 14.1 4 Sudeste 13 Este 0 -- -- 71
2017-11-01 22:00:00 15.3 3 Sudeste 12 Este 0 -- -- 72
2017-11-01 21:00:00 16.2 4 Este 15 Este 0 -- -- 68
2017-11-01 20:00:00 17.1 5 Este 12 Este 0 -- -- 63
2017-11-01 19:00:00 17.2 0 Calma 4 Nordeste 0 -- -- 57
2017-11-01 18:00:00 19.5 0 Calma 7 Sudeste 0 -- -- 50
2017-11-01 17:00:00 20.7 3 Sudeste 16 Sur 0 -- -- 46
2017-11-01 16:00:00 21.4 3 Sudeste 13 Sudeste 0 -- -- 44
2017-11-01 15:00:00 21.3 6 Sur 15 Sur 0 -- -- 46
2017-11-01 14:00:00 20.8 4 Sudeste 12 Sur 0 -- -- 48
2017-11-01 13:00:00 20.1 6 Sur 15 Sudeste 0 -- -- 52
2017-11-01 12:00:00 18.8 5 Sur 13 Sudeste 0 -- -- 58
2017-11-01 11:00:00 15.3 4 Sudeste 13 Sudeste 0 -- -- 77
2017-11-01 10:00:00 11.4 5 Sudeste 15 Sudeste 0 -- -- 93
2017-11-01 09:00:00 10.2 5 Sudeste 15 Este 0 -- -- 93
2017-11-01 08:00:00 9.9 4 Sudeste 12 Este 0 -- -- 94
2017-11-01 07:00:00 10 3 Sudeste 13 Sudeste 0 -- -- 93
2017-11-01 06:00:00 10.4 5 Sudeste 17 Este 0 -- -- 92
2017-11-01 05:00:00 10.8 5 Sudeste 18 Sur 0 -- -- 91
2017-11-01 04:00:00 11.2 5 Sudeste 15 Sudeste 0 -- -- 90
2017-11-01 03:00:00 11.6 6 Sudeste 21 Este 0 -- -- 89
2017-11-01 02:00:00 11.9 6 Sudeste 17 Nordeste 0 -- -- 87
2017-11-01 01:00:00 12.4 6 Sudeste 19 Este 0 -- -- 85
2017-11-01 00:00:00 13 6 Sudeste 24 Este 0 -- -- 81
2017-10-31 23:00:00 13.9 6 Sudeste 18 Este 0 -- -- 75
2017-10-31 22:00:00 15.1 5 Sudeste 20 Este 0 -- -- 64
2017-10-31 21:00:00 15.2 0 Calma 8 Nordeste 0 -- -- 56
2017-10-31 20:00:00 15.2 0 Calma 2 Nordeste 0 -- -- 55
2017-10-31 19:00:00 16.5 0 Calma 2 Sudoeste 0 -- -- 52
2017-10-31 18:00:00 18.7 2 Sudoeste 9 Sudoeste 0 -- -- 43
2017-10-31 17:00:00 20.1 4 Sur 13 Sur 0 -- -- 39
2017-10-31 16:00:00 20.9 4 Sur 10 Sur 0 -- -- 41
2017-10-31 15:00:00 21.2 5 Oeste 12 Sudoeste 0 -- -- 42
2017-10-31 14:00:00 21.1 5 Sur 15 Sur 0 -- -- 46
2017-10-31 13:00:00 20.3 8 Sur 17 Sur 0 -- -- 53
2017-10-31 12:00:00 18.9 7 Sur 17 Sudoeste 0 -- -- 60
2017-10-31 11:00:00 16.7 6 Sudeste 15 Sur 0 -- -- 69
2017-10-31 10:00:00 13.9 5 Sudeste 12 Este 0 -- -- 82
2017-10-31 09:00:00 10.8 2 Sur 8 Este 0 -- -- 93
2017-10-31 08:00:00 10.4 2 Oeste 17 Sudeste 0 -- -- 86
2017-10-31 07:00:00 11.9 5 Sudeste 15 Este 0 -- -- 89
2017-10-31 06:00:00 12.3 2 Este 13 Este 0 -- -- 87
2017-10-31 05:00:00 12.2 4 Este 14 Este 0 -- -- 89
2017-10-31 04:00:00 11.4 5 Este 19 Este 0 -- -- 87
2017-10-31 03:00:00 11.7 6 Este 22 Este 0 -- -- 83
2017-10-31 02:00:00 12 6 Este 18 Este 0 -- -- 73
2017-10-31 01:00:00 11.4 2 Sudeste 18 Este 0 -- -- 60
2017-10-31 00:00:00 12.7 4 Sudeste 8 Sudeste 0 -- -- 59
2017-10-30 23:00:00 13.2 3 Este 8 Este 0 -- -- 59
2017-10-30 22:00:00 13 2 Nordeste 6 Nordeste 0 -- -- 57
2017-10-30 21:00:00 13.8 0 Calma 3 Norte 0 -- -- 56
2017-10-30 20:00:00 15.2 0 Calma 2 Sudeste 0 -- -- 51
2017-10-30 19:00:00 17.3 0 Calma 7 Nordeste 0 -- -- 44
2017-10-30 18:00:00 19.1 3 Norte 12 Nordeste 0 -- -- 38
2017-10-30 17:00:00 19.7 4 Norte 14 Noroeste 0 -- -- 37
2017-10-30 16:00:00 20 4 Noroeste 14 Nordeste 0 -- -- 38
2017-10-30 15:00:00 19.9 6 Norte 14 Norte 0 -- -- 39
2017-10-30 14:00:00 18.6 7 Nordeste 19 Nordeste 0 -- -- 43
2017-10-30 13:00:00 17.5 5 Norte 15 Nordeste 0 -- -- 47
2017-10-30 12:00:00 16.8 3 Sur 8 Este 0 -- -- 47
2017-10-30 11:00:00 13.6 3 Nordeste 13 Norte 0 -- -- 60
2017-10-30 10:00:00 11.7 6 Norte 14 Norte 0 -- -- 68
2017-10-30 09:00:00 7.3 3 Norte 7 Nordeste 0 -- -- 81
2017-10-30 08:00:00 6.4 2 Noroeste 6 Noroeste 0 -- -- 79
2017-10-30 07:00:00 6.9 3 Norte 8 Norte 0 -- -- 76
2017-10-30 06:00:00 7.3 2 Norte 6 Nordeste 0 -- -- 72
2017-10-30 05:00:00 7.9 0 Calma 9 Noroeste 0 -- -- 67
2017-10-30 04:00:00 8.5 5 Norte 10 Norte 0 -- -- 60
2017-10-30 03:00:00 8.7 0 Calma 6 Noroeste 0 -- -- 57
2017-10-30 02:00:00 9.4 0 Calma 9 Norte 0 -- -- 54
2017-10-30 01:00:00 10.4 3 Norte 8 Norte 0 -- -- 49
2017-10-30 00:00:00 11.2 3 Norte 6 Norte 0 -- -- 49
2017-10-29 23:00:00 11.3 0 Calma 5 Norte 0 -- -- 49
2017-10-29 22:00:00 12.5 3 Noroeste 5 Noroeste 0 -- -- 47
2017-10-29 21:00:00 13.4 0 Calma 4 Noroeste 0 -- -- 59
2017-10-29 20:00:00 14.8 0 Calma 3 Oeste 0 -- -- 63
2017-10-29 19:00:00 16.8 0 Calma 4 Noroeste 0 -- -- 57
2017-10-29 18:00:00 19.3 3 Norte 10 Norte 0 -- -- 47
2017-10-29 17:00:00 20 2 Norte 12 Oeste 0 -- -- 46
2017-10-29 16:00:00 20.8 3 Noroeste 10 Nordeste 0 -- -- 46
2017-10-29 15:00:00 20.3 5 Norte 10 Oeste 0 -- -- 52
2017-10-29 14:00:00 19.5 3 Oeste 10 Nordeste 0 -- -- 60
2017-10-29 13:00:00 18.1 3 Norte 11 Nordeste 0 -- -- 67
2017-10-29 12:00:00 15.8 3 Sur 8 Noroeste 0 -- -- 77
2017-10-29 11:00:00 11.6 3 Noroeste 9 Noroeste 0 -- -- 91
2017-10-29 10:00:00 9.9 3 Noroeste 6 Oeste 0 -- -- 96
2017-10-29 09:00:00 8.3 2 Nordeste 9 Norte 0 -- -- 96
2017-10-29 08:00:00 7.6 2 Noroeste 7 Noroeste 0 -- -- 92
2017-10-29 07:00:00 7.6 3 Norte 9 Nordeste 0 -- -- 80
2017-10-29 06:00:00 7.6 3 Norte 8 Noroeste 0 -- -- 67
2017-10-29 05:00:00 8 2 Norte 8 Noroeste 0 -- -- 67
2017-10-29 04:00:00 8.9 3 Norte 6 Norte 0 -- -- 66
2017-10-29 03:00:00 9.5 0 Calma 11 Norte 0 -- -- 65
2017-10-29 02:00:00 11.4 3 Noroeste 8 Norte 0 -- -- 59
2017-10-29 01:00:00 12.5 2 Noroeste 10 Sudoeste 0 -- -- 60
2017-10-29 00:00:00 14.4 0 Calma 6 Norte 0 -- -- 55
2017-10-28 23:00:00 14.7 3 Norte 10 Norte 0 -- -- 51
2017-10-28 22:00:00 15.6 0 Calma 3 Nordeste 0 -- -- 53
2017-10-28 21:00:00 17 0 Calma 3 Nordeste 0 -- -- 47
2017-10-28 20:00:00 18.6 0 Calma 8 Norte 0 -- -- 43
2017-10-28 19:00:00 20.6 3 Norte 13 Nordeste 0 -- -- 37
2017-10-28 18:00:00 21.4 6 Norte 17 Nordeste 0 -- -- 37
2017-10-28 17:00:00 22.1 4 Nordeste 19 Nordeste 0 -- -- 36
2017-10-28 16:00:00 22.1 6 Nordeste 16 Nordeste 0 -- -- 37
2017-10-28 15:00:00 21.2 8 Nordeste 19 Nordeste 0 -- -- 41
2017-10-28 14:00:00 20.4 5 Este 14 Este 0 -- -- 44
2017-10-28 13:00:00 18.7 6 Este 20 Este 0 -- -- 48
2017-10-28 12:00:00 17.2 7 Este 21 Este 0 -- -- 50
2017-10-28 11:00:00 14.4 3 Norte 8 Norte 0 -- -- 56
2017-10-28 10:00:00 10.2 2 Nordeste 7 Norte 0 -- -- 69
2017-10-28 09:00:00 9.3 0 Calma 7 Norte 0 -- -- 71
2017-10-28 08:00:00 9.8 4 Noroeste 8 Noroeste 0 -- -- 68
2017-10-28 07:00:00 12.2 3 Nordeste 15 Este 0 -- -- 60
2017-10-28 06:00:00 13.3 0 Calma 17 Norte 0 -- -- 57
2017-10-28 05:00:00 11.7 3 Norte 11 Norte 0 -- -- 62
2017-10-28 04:00:00 12.1 5 Norte 12 Norte 0 -- -- 58
2017-10-28 03:00:00 12.8 3 Norte 11 Noroeste 0 -- -- 53
2017-10-28 02:00:00 13.9 3 Norte 11 Norte 0 -- -- 49
2017-10-28 01:00:00 14.6 4 Norte 12 Nordeste 0 -- -- 45
2017-10-28 00:00:00 15.4 5 Nordeste 16 Norte 0 -- -- 43
2017-10-27 23:00:00 16.6 8 Norte 14 Norte 0 -- -- 41
2017-10-27 22:00:00 18.3 5 Norte 12 Norte 0 -- -- 38
2017-10-27 21:00:00 21 8 Norte 15 Norte 0 -- -- 35
2017-10-27 20:00:00 23.1 6 Norte 13 Norte 0 -- -- 33
2017-10-27 19:00:00 25.9 6 Norte 23 Norte 0 -- -- 27
2017-10-27 18:00:00 27.4 9 Norte 21 Norte 0 -- -- 23
2017-10-27 17:00:00 27.9 8 Norte 23 Nordeste 0 -- -- 24
2017-10-27 16:00:00 28 10 Norte 26 Nordeste 0 -- -- 24
2017-10-27 15:00:00 27.3 11 Nordeste 22 Nordeste 0 -- -- 24
2017-10-27 14:00:00 24.9 6 Norte 14 Norte 0 -- -- 30
2017-10-27 13:00:00 22.3 6 Norte 11 Norte 0 -- -- 35
2017-10-27 12:00:00 19.2 3 Norte 11 Norte 0 -- -- 43
2017-10-27 11:00:00 15 3 Noroeste 8 Norte 0 -- -- 56
2017-10-27 10:00:00 11 5 Norte 10 Norte 0 -- -- 65
2017-10-27 09:00:00 9.8 2 Norte 5 Norte 0 -- -- 69
2017-10-27 08:00:00 10.5 4 Norte 7 Norte 0 -- -- 66
2017-10-27 07:00:00 10.5 4 Norte 9 Norte 0 -- -- 66
2017-10-27 06:00:00 11 2 Norte 5 Nordeste 0 -- -- 65
2017-10-27 05:00:00 11.4 2 Norte 7 Norte 0 -- -- 65
2017-10-27 04:00:00 12.8 0 Calma 6 Nordeste 0 -- -- 60
2017-10-27 03:00:00 13.9 4 Norte 8 Norte 0 -- -- 56
2017-10-27 02:00:00 14.6 5 Norte 9 Norte 0 -- -- 53
2017-10-27 01:00:00 15.9 0 Calma 8 Nordeste 0 -- -- 50
2017-10-27 00:00:00 18.2 2 Nordeste 13 Nordeste 0 -- -- 44
2017-10-26 23:00:00 18.7 5 Norte 9 Nordeste 0 -- -- 42
2017-10-26 22:00:00 18.8 3 Norte 10 Norte 0 -- -- 44
2017-10-26 21:00:00 20.3 4 Norte 8 Nordeste 0 -- -- 40
2017-10-26 20:00:00 21.7 2 Norte 5 Norte 0 -- -- 38
2017-10-26 19:00:00 24.8 3 Norte 11 Nordeste 0 -- -- 32
2017-10-26 18:00:00 26.2 4 Norte 12 Norte 0 -- -- 28
2017-10-26 17:00:00 26.9 5 Nordeste 15 Nordeste 0 -- -- 28
2017-10-26 16:00:00 26.8 5 Nordeste 15 Nordeste 0 -- -- 29
2017-10-26 15:00:00 25.6 5 Norte 11 Este 0 -- -- 32
2017-10-26 14:00:00 24.1 4 Norte 15 Noroeste 0 -- -- 38
2017-10-26 13:00:00 23 2 Sudeste 8 Este 0 -- -- 40
2017-10-26 12:00:00 20.1 4 Sudeste 10 Este 0 -- -- 47
2017-10-26 11:00:00 17.1 4 Sudeste 10 Este 0 -- -- 55
2017-10-26 10:00:00 13.3 3 Este 11 Sudeste 0 -- -- 66
2017-10-26 09:00:00 12.2 2 Este 11 Sudeste 0 -- -- 69
2017-10-26 08:00:00 12.3 3 Este 12 Este 0 -- -- 67
2017-10-26 07:00:00 12.2 2 Este 9 Nordeste 0 -- -- 67
2017-10-26 06:00:00 12.9 3 Este 10 Este 0 -- -- 66
2017-10-26 05:00:00 13.6 3 Este 14 Este 0 -- -- 64
2017-10-26 04:00:00 14.4 4 Sudeste 14 Este 0 -- -- 61
2017-10-26 03:00:00 14.6 4 Este 14 Este 0 -- -- 59
2017-10-26 02:00:00 15 3 Este 8 Este 0 -- -- 56
2017-10-26 01:00:00 16.1 0 Calma 9 Este 0 -- -- 54
2017-10-26 00:00:00 15.8 3 Sudeste 11 Este 0 -- -- 53
2017-10-25 23:00:00 16 0 Calma -- -- 0 -- -- 52
2017-10-25 22:00:00 17 0 Calma -- -- 0 -- -- 52
2017-10-25 21:00:00 18.5 0 Calma -- -- 0 -- -- 46
2017-10-25 20:00:00 20.7 0 Calma 4 Sur 0 -- -- 39
2017-10-25 19:00:00 23.6 2 Sur 8 Sur 0 -- -- 32
2017-10-25 18:00:00 25.7 4 Sur 8 Sur 0 -- -- 26
2017-10-25 17:00:00 27 3 Este 8 Sudoeste 0 -- -- 25
2017-10-25 16:00:00 26.9 4 Sur 9 Sudoeste 0 -- -- 25
2017-10-25 15:00:00 25 3 Nordeste 9 Sudeste 0 -- -- 30
2017-10-25 14:00:00 23.9 4 Sudeste 11 Sur 0 -- -- 36
2017-10-25 13:00:00 21.5 2 Sudeste 6 Sur 0 -- -- 42
2017-10-25 12:00:00 19.1 3 Sudeste 10 Sudeste 0 -- -- 51
2017-10-25 11:00:00 15.7 4 Sudeste 14 Este 0 -- -- 60
2017-10-25 10:00:00 11.5 3 Sudeste 10 Sudeste 0 -- -- 76
2017-10-25 09:00:00 8.5 0 Calma 2 Noroeste 0 -- -- 79
2017-10-25 08:00:00 9.1 0 Calma 4 Noroeste 0 -- -- 77
2017-10-25 07:00:00 9.6 0 Calma 4 Nordeste 0 -- -- 74
2017-10-25 06:00:00 10.5 0 Calma 5 Este 0 -- -- 75
2017-10-25 05:00:00 10.2 0 Calma 4 Norte 0 -- -- 71
2017-10-25 04:00:00 10.9 0 Calma 3 Noroeste 0 -- -- 67
2017-10-25 03:00:00 12.3 0 Calma 6 Este 0 -- -- 63
2017-10-25 02:00:00 12.7 0 Calma 0 Calma 0 -- -- 61
2017-10-25 01:00:00 12.7 0 Calma 0 Calma 0 -- -- 61
2017-10-25 00:00:00 14.1 0 Calma -- -- 0 -- -- 56